Terminal Aerodrome Forecast
Issued by NWS

Home | Current Version | Previous Version | Graphics & Text | Print | Product List | Glossary Off
Versions: 1 2 3 4 5 6 7 8 9 10 11 12 13 14 15 16 17 18 19 20

000
FTUS43 KDDC 232233 AAA
TAFGCK
TAF AMD
KGCK 232233Z 2323/2418 16007KT P6SM SCT060
     FM240100 13010KT P6SM SCT200
     FM240800 14008KT P6SM SCT120 WS020/19040KT=

USA.gov is the U.S. government's official web portal to all federal, state and local government web resources and services.